sensor_id;sensor_type;location;lat;lon;timestamp;P1;durP1;ratioP1;P2;durP2;ratioP2
10100;SDS011;5090;51.258;4.436;2023-05-07T00:02:01;14.27;;;9.20;;
10100;SDS011;5090;51.258;4.436;2023-05-07T00:04:30;12.90;;;9.13;;
10100;SDS011;5090;51.258;4.436;2023-05-07T00:06:58;13.43;;;9.60;;
10100;SDS011;5090;51.258;4.436;2023-05-07T00:09:26;11.93;;;8.67;;
10100;SDS011;5090;51.258;4.436;2023-05-07T00:11:54;10.90;;;9.57;;
10100;SDS011;5090;51.258;4.436;2023-05-07T00:14:23;10.60;;;9.50;;
10100;SDS011;5090;51.258;4.436;2023-05-07T00:16:51;13.03;;;9.50;;
10100;SDS011;5090;51.258;4.436;2023-05-07T00:19:20;13.10;;;9.43;;
10100;SDS011;5090;51.258;4.436;2023-05-07T00:21:48;12.23;;;9.47;;
10100;SDS011;5090;51.258;4.436;2023-05-07T00:24:16;13.07;;;9.97;;
10100;SDS011;5090;51.258;4.436;2023-05-07T00:26:44;13.77;;;9.43;;
10100;SDS011;5090;51.258;4.436;2023-05-07T00:29:13;15.30;;;9.67;;
10100;SDS011;5090;51.258;4.436;2023-05-07T00:31:41;12.07;;;9.60;;
10100;SDS011;5090;51.258;4.436;2023-05-07T00:34:09;13.50;;;9.87;;
10100;SDS011;5090;51.258;4.436;2023-05-07T00:36:38;13.53;;;9.90;;
10100;SDS011;5090;51.258;4.436;2023-05-07T00:39:06;13.73;;;9.47;;
10100;SDS011;5090;51.258;4.436;2023-05-07T00:41:34;11.73;;;10.10;;
10100;SDS011;5090;51.258;4.436;2023-05-07T00:46:59;15.70;;;9.30;;
10100;SDS011;5090;51.258;4.436;2023-05-07T00:49:32;13.67;;;9.73;;
10100;SDS011;5090;51.258;4.436;2023-05-07T00:51:56;11.27;;;10.07;;
10100;SDS011;5090;51.258;4.436;2023-05-07T00:54:24;14.37;;;10.83;;
10100;SDS011;5090;51.258;4.436;2023-05-07T00:56:53;10.57;;;9.50;;
10100;SDS011;5090;51.258;4.436;2023-05-07T00:59:20;14.43;;;10.67;;
10100;SDS011;5090;51.258;4.436;2023-05-07T01:01:49;12.83;;;9.43;;
10100;SDS011;5090;51.258;4.436;2023-05-07T01:04:17;11.93;;;9.73;;
10100;SDS011;5090;51.258;4.436;2023-05-07T01:06:47;12.17;;;10.43;;
10100;SDS011;5090;51.258;4.436;2023-05-07T01:09:15;17.03;;;10.33;;
10100;SDS011;5090;51.258;4.436;2023-05-07T01:11:44;12.07;;;10.20;;
10100;SDS011;5090;51.258;4.436;2023-05-07T01:14:12;12.70;;;9.97;;
10100;SDS011;5090;51.258;4.436;2023-05-07T01:16:41;11.90;;;10.10;;
10100;SDS011;5090;51.258;4.436;2023-05-07T01:19:09;10.80;;;9.77;;
10100;SDS011;5090;51.258;4.436;2023-05-07T01:21:37;13.67;;;9.90;;
10100;SDS011;5090;51.258;4.436;2023-05-07T01:24:05;12.00;;;9.50;;
10100;SDS011;5090;51.258;4.436;2023-05-07T01:26:34;17.40;;;10.63;;
10100;SDS011;5090;51.258;4.436;2023-05-07T01:29:02;12.73;;;10.23;;
10100;SDS011;5090;51.258;4.436;2023-05-07T01:31:31;14.13;;;10.00;;
10100;SDS011;5090;51.258;4.436;2023-05-07T01:33:59;15.77;;;10.00;;
10100;SDS011;5090;51.258;4.436;2023-05-07T01:36:30;11.50;;;10.03;;
10100;SDS011;5090;51.258;4.436;2023-05-07T01:38:59;14.60;;;10.17;;
10100;SDS011;5090;51.258;4.436;2023-05-07T01:41:27;16.07;;;10.30;;
10100;SDS011;5090;51.258;4.436;2023-05-07T01:43:55;14.20;;;10.37;;
10100;SDS011;5090;51.258;4.436;2023-05-07T01:46:25;11.93;;;10.07;;
10100;SDS011;5090;51.258;4.436;2023-05-07T01:48:53;15.13;;;10.63;;
10100;SDS011;5090;51.258;4.436;2023-05-07T01:51:21;15.13;;;11.57;;
10100;SDS011;5090;51.258;4.436;2023-05-07T01:53:50;15.87;;;10.97;;
10100;SDS011;5090;51.258;4.436;2023-05-07T01:56:18;12.63;;;10.90;;
10100;SDS011;5090;51.258;4.436;2023-05-07T01:58:47;17.47;;;11.20;;
10100;SDS011;5090;51.258;4.436;2023-05-07T02:01:15;13.07;;;10.83;;
10100;SDS011;5090;51.258;4.436;2023-05-07T02:03:44;11.67;;;10.47;;
10100;SDS011;5090;51.258;4.436;2023-05-07T02:06:14;16.03;;;10.70;;
10100;SDS011;5090;51.258;4.436;2023-05-07T02:08:42;13.40;;;10.80;;
10100;SDS011;5090;51.258;4.436;2023-05-07T02:11:11;14.20;;;11.27;;
10100;SDS011;5090;51.258;4.436;2023-05-07T02:19:32;12.23;;;11.00;;
10100;SDS011;5090;51.258;4.436;2023-05-07T02:22:00;16.40;;;10.80;;
10100;SDS011;5090;51.258;4.436;2023-05-07T02:24:29;14.30;;;10.97;;
10100;SDS011;5090;51.258;4.436;2023-05-07T02:26:57;15.03;;;11.83;;
10100;SDS011;5090;51.258;4.436;2023-05-07T02:29:26;12.93;;;11.40;;
10100;SDS011;5090;51.258;4.436;2023-05-07T02:31:54;15.50;;;11.63;;
10100;SDS011;5090;51.258;4.436;2023-05-07T02:37:17;14.47;;;12.00;;
10100;SDS011;5090;51.258;4.436;2023-05-07T02:39:45;15.90;;;11.87;;
10100;SDS011;5090;51.258;4.436;2023-05-07T02:42:13;13.10;;;11.40;;
10100;SDS011;5090;51.258;4.436;2023-05-07T02:44:42;13.60;;;11.30;;
10100;SDS011;5090;51.258;4.436;2023-05-07T02:47:10;15.90;;;11.93;;
10100;SDS011;5090;51.258;4.436;2023-05-07T02:49:38;15.00;;;11.87;;
10100;SDS011;5090;51.258;4.436;2023-05-07T02:52:07;15.07;;;11.93;;
10100;SDS011;5090;51.258;4.436;2023-05-07T02:54:35;13.27;;;11.63;;
10100;SDS011;5090;51.258;4.436;2023-05-07T02:57:04;14.53;;;10.70;;
10100;SDS011;5090;51.258;4.436;2023-05-07T02:59:32;13.10;;;11.53;;
10100;SDS011;5090;51.258;4.436;2023-05-07T03:02:01;13.20;;;11.50;;
10100;SDS011;5090;51.258;4.436;2023-05-07T03:04:29;13.57;;;10.63;;
10100;SDS011;5090;51.258;4.436;2023-05-07T03:06:57;14.80;;;11.03;;
10100;SDS011;5090;51.258;4.436;2023-05-07T03:09:26;12.70;;;11.30;;
10100;SDS011;5090;51.258;4.436;2023-05-07T03:11:54;14.13;;;11.17;;
10100;SDS011;5090;51.258;4.436;2023-05-07T03:14:22;14.40;;;11.40;;
10100;SDS011;5090;51.258;4.436;2023-05-07T03:16:50;13.03;;;11.70;;
10100;SDS011;5090;51.258;4.436;2023-05-07T03:19:19;14.03;;;10.93;;
10100;SDS011;5090;51.258;4.436;2023-05-07T03:21:54;14.87;;;11.40;;
10100;SDS011;5090;51.258;4.436;2023-05-07T03:24:22;12.13;;;10.83;;
10100;SDS011;5090;51.258;4.436;2023-05-07T03:26:51;12.50;;;11.03;;
10100;SDS011;5090;51.258;4.436;2023-05-07T03:29:19;13.20;;;11.20;;
10100;SDS011;5090;51.258;4.436;2023-05-07T03:31:47;13.53;;;11.23;;
10100;SDS011;5090;51.258;4.436;2023-05-07T03:34:15;14.33;;;11.43;;
10100;SDS011;5090;51.258;4.436;2023-05-07T03:36:44;13.27;;;11.87;;
10100;SDS011;5090;51.258;4.436;2023-05-07T03:39:12;12.80;;;10.93;;
10100;SDS011;5090;51.258;4.436;2023-05-07T03:41:40;13.40;;;11.60;;
10100;SDS011;5090;51.258;4.436;2023-05-07T03:44:08;13.50;;;11.83;;
10100;SDS011;5090;51.258;4.436;2023-05-07T03:46:37;12.73;;;10.87;;
10100;SDS011;5090;51.258;4.436;2023-05-07T03:49:05;13.40;;;12.10;;
10100;SDS011;5090;51.258;4.436;2023-05-07T03:51:33;14.87;;;11.73;;
10100;SDS011;5090;51.258;4.436;2023-05-07T03:54:01;14.90;;;11.80;;
10100;SDS011;5090;51.258;4.436;2023-05-07T03:56:30;15.60;;;11.93;;
10100;SDS011;5090;51.258;4.436;2023-05-07T03:58:58;15.83;;;12.80;;
10100;SDS011;5090;51.258;4.436;2023-05-07T04:01:26;14.70;;;12.03;;
10100;SDS011;5090;51.258;4.436;2023-05-07T04:03:55;13.70;;;12.27;;
10100;SDS011;5090;51.258;4.436;2023-05-07T04:06:23;16.17;;;12.03;;
10100;SDS011;5090;51.258;4.436;2023-05-07T04:08:51;13.53;;;11.80;;
10100;SDS011;5090;51.258;4.436;2023-05-07T04:11:19;13.83;;;12.33;;
10100;SDS011;5090;51.258;4.436;2023-05-07T04:13:47;14.20;;;12.30;;
10100;SDS011;5090;51.258;4.436;2023-05-07T04:16:16;14.30;;;11.70;;
10100;SDS011;5090;51.258;4.436;2023-05-07T04:18:45;14.67;;;12.37;;
10100;SDS011;5090;51.258;4.436;2023-05-07T04:21:14;13.90;;;12.40;;
10100;SDS011;5090;51.258;4.436;2023-05-07T04:23:41;15.57;;;12.23;;
10100;SDS011;5090;51.258;4.436;2023-05-07T04:28:57;13.53;;;12.03;;
10100;SDS011;5090;51.258;4.436;2023-05-07T04:31:25;15.93;;;12.10;;
10100;SDS011;5090;51.258;4.436;2023-05-07T04:33:54;13.67;;;11.33;;
10100;SDS011;5090;51.258;4.436;2023-05-07T04:36:22;16.63;;;12.80;;
10100;SDS011;5090;51.258;4.436;2023-05-07T04:38:50;14.63;;;12.27;;
10100;SDS011;5090;51.258;4.436;2023-05-07T04:41:18;14.47;;;12.07;;
10100;SDS011;5090;51.258;4.436;2023-05-07T04:43:47;13.27;;;11.90;;
10100;SDS011;5090;51.258;4.436;2023-05-07T04:46:15;13.37;;;11.93;;
10100;SDS011;5090;51.258;4.436;2023-05-07T04:48:44;13.60;;;12.20;;
10100;SDS011;5090;51.258;4.436;2023-05-07T04:51:12;14.57;;;11.70;;
10100;SDS011;5090;51.258;4.436;2023-05-07T04:53:40;13.27;;;11.93;;
10100;SDS011;5090;51.258;4.436;2023-05-07T04:56:08;16.43;;;11.90;;
10100;SDS011;5090;51.258;4.436;2023-05-07T04:58:37;13.60;;;12.17;;
10100;SDS011;5090;51.258;4.436;2023-05-07T05:01:05;15.67;;;12.03;;
10100;SDS011;5090;51.258;4.436;2023-05-07T05:03:33;13.60;;;12.00;;
10100;SDS011;5090;51.258;4.436;2023-05-07T05:06:02;12.43;;;11.13;;
10100;SDS011;5090;51.258;4.436;2023-05-07T05:08:30;12.90;;;11.60;;
10100;SDS011;5090;51.258;4.436;2023-05-07T05:16:44;13.17;;;11.77;;
10100;SDS011;5090;51.258;4.436;2023-05-07T05:19:12;17.20;;;11.73;;
10100;SDS011;5090;51.258;4.436;2023-05-07T05:21:41;12.97;;;11.00;;
10100;SDS011;5090;51.258;4.436;2023-05-07T05:24:09;13.03;;;11.20;;
10100;SDS011;5090;51.258;4.436;2023-05-07T05:26:38;14.90;;;12.30;;
10100;SDS011;5090;51.258;4.436;2023-05-07T05:29:06;14.00;;;11.53;;
10100;SDS011;5090;51.258;4.436;2023-05-07T05:31:35;12.93;;;11.40;;
10100;SDS011;5090;51.258;4.436;2023-05-07T05:34:03;15.50;;;12.00;;
10100;SDS011;5090;51.258;4.436;2023-05-07T05:36:32;16.17;;;12.37;;
10100;SDS011;5090;51.258;4.436;2023-05-07T05:39:00;14.53;;;11.83;;
10100;SDS011;5090;51.258;4.436;2023-05-07T05:41:29;14.80;;;12.10;;
10100;SDS011;5090;51.258;4.436;2023-05-07T05:43:57;16.57;;;13.13;;
10100;SDS011;5090;51.258;4.436;2023-05-07T05:46:25;15.57;;;12.87;;
10100;SDS011;5090;51.258;4.436;2023-05-07T05:48:53;13.83;;;12.37;;
10100;SDS011;5090;51.258;4.436;2023-05-07T05:51:22;14.33;;;12.57;;
10100;SDS011;5090;51.258;4.436;2023-05-07T05:53:50;15.70;;;12.43;;
10100;SDS011;5090;51.258;4.436;2023-05-07T05:56:18;17.00;;;12.30;;
10100;SDS011;5090;51.258;4.436;2023-05-07T05:58:47;14.50;;;12.03;;
10100;SDS011;5090;51.258;4.436;2023-05-07T06:01:16;15.00;;;12.43;;
10100;SDS011;5090;51.258;4.436;2023-05-07T06:03:45;16.80;;;13.53;;
10100;SDS011;5090;51.258;4.436;2023-05-07T06:06:13;14.80;;;13.23;;
10100;SDS011;5090;51.258;4.436;2023-05-07T06:08:41;14.47;;;12.50;;
10100;SDS011;5090;51.258;4.436;2023-05-07T06:11:09;18.93;;;12.77;;
10100;SDS011;5090;51.258;4.436;2023-05-07T06:13:38;16.00;;;13.53;;
10100;SDS011;5090;51.258;4.436;2023-05-07T06:16:06;15.80;;;13.33;;
10100;SDS011;5090;51.258;4.436;2023-05-07T06:18:34;15.70;;;12.70;;
10100;SDS011;5090;51.258;4.436;2023-05-07T06:35:37;14.83;;;13.07;;
10100;SDS011;5090;51.258;4.436;2023-05-07T06:38:05;16.00;;;13.40;;
10100;SDS011;5090;51.258;4.436;2023-05-07T06:40:34;15.33;;;12.10;;
10100;SDS011;5090;51.258;4.436;2023-05-07T06:43:06;15.67;;;14.07;;
10100;SDS011;5090;51.258;4.436;2023-05-07T06:45:41;14.83;;;13.00;;
10100;SDS011;5090;51.258;4.436;2023-05-07T06:48:09;15.43;;;13.83;;
10100;SDS011;5090;51.258;4.436;2023-05-07T06:50:37;16.47;;;14.17;;
10100;SDS011;5090;51.258;4.436;2023-05-07T06:53:06;15.10;;;13.20;;
10100;SDS011;5090;51.258;4.436;2023-05-07T06:55:34;16.87;;;14.03;;
10100;SDS011;5090;51.258;4.436;2023-05-07T06:58:02;17.97;;;14.23;;
10100;SDS011;5090;51.258;4.436;2023-05-07T07:00:31;16.70;;;13.70;;
10100;SDS011;5090;51.258;4.436;2023-05-07T07:02:59;16.40;;;13.37;;
10100;SDS011;5090;51.258;4.436;2023-05-07T07:05:27;14.67;;;13.20;;
10100;SDS011;5090;51.258;4.436;2023-05-07T07:07:55;15.43;;;13.27;;
10100;SDS011;5090;51.258;4.436;2023-05-07T07:19:17;16.90;;;13.10;;
10100;SDS011;5090;51.258;4.436;2023-05-07T07:21:45;14.77;;;12.98;;
10100;SDS011;5090;51.258;4.436;2023-05-07T07:24:13;14.55;;;12.65;;
10100;SDS011;5090;51.258;4.436;2023-05-07T07:26:44;15.98;;;12.55;;
10100;SDS011;5090;51.258;4.436;2023-05-07T07:29:14;18.08;;;13.43;;
10100;SDS011;5090;51.258;4.436;2023-05-07T07:31:42;16.25;;;12.40;;
10100;SDS011;5090;51.258;4.436;2023-05-07T07:34:10;14.85;;;13.20;;
10100;SDS011;5090;51.258;4.436;2023-05-07T07:36:42;17.60;;;13.95;;
10100;SDS011;5090;51.258;4.436;2023-05-07T07:39:11;15.80;;;13.13;;
10100;SDS011;5090;51.258;4.436;2023-05-07T07:41:40;16.77;;;12.93;;
10100;SDS011;5090;51.258;4.436;2023-05-07T07:44:08;16.62;;;13.77;;
10100;SDS011;5090;51.258;4.436;2023-05-07T07:46:37;14.48;;;12.98;;
10100;SDS011;5090;51.258;4.436;2023-05-07T07:49:06;14.10;;;12.50;;
10100;SDS011;5090;51.258;4.436;2023-05-07T07:51:34;15.73;;;12.35;;
10100;SDS011;5090;51.258;4.436;2023-05-07T07:54:03;13.75;;;10.93;;
10100;SDS011;5090;51.258;4.436;2023-05-07T07:56:32;11.50;;;9.77;;
10100;SDS011;5090;51.258;4.436;2023-05-07T07:59:00;14.63;;;9.48;;
10100;SDS011;5090;51.258;4.436;2023-05-07T08:01:29;14.05;;;9.38;;
10100;SDS011;5090;51.258;4.436;2023-05-07T08:03:57;13.27;;;8.98;;
10100;SDS011;5090;51.258;4.436;2023-05-07T08:06:26;12.37;;;8.85;;
10100;SDS011;5090;51.258;4.436;2023-05-07T08:08:55;12.30;;;9.13;;
10100;SDS011;5090;51.258;4.436;2023-05-07T08:11:25;14.35;;;10.20;;
10100;SDS011;5090;51.258;4.436;2023-05-07T08:13:54;11.60;;;9.30;;
10100;SDS011;5090;51.258;4.436;2023-05-07T08:16:23;15.07;;;10.10;;
10100;SDS011;5090;51.258;4.436;2023-05-07T08:18:51;12.68;;;9.95;;
10100;SDS011;5090;51.258;4.436;2023-05-07T08:21:20;11.12;;;9.32;;
10100;SDS011;5090;51.258;4.436;2023-05-07T08:23:49;12.40;;;10.07;;
10100;SDS011;5090;51.258;4.436;2023-05-07T08:26:24;15.75;;;10.18;;
10100;SDS011;5090;51.258;4.436;2023-05-07T08:28:52;13.50;;;9.65;;
10100;SDS011;5090;51.258;4.436;2023-05-07T08:31:20;14.25;;;10.23;;
10100;SDS011;5090;51.258;4.436;2023-05-07T08:33:49;14.45;;;9.25;;
10100;SDS011;5090;51.258;4.436;2023-05-07T08:36:17;13.65;;;9.98;;
10100;SDS011;5090;51.258;4.436;2023-05-07T08:38:45;13.60;;;9.80;;
10100;SDS011;5090;51.258;4.436;2023-05-07T08:41:14;16.87;;;10.90;;
10100;SDS011;5090;51.258;4.436;2023-05-07T08:43:42;14.23;;;9.93;;
10100;SDS011;5090;51.258;4.436;2023-05-07T08:46:10;16.10;;;10.27;;
10100;SDS011;5090;51.258;4.436;2023-05-07T08:48:38;11.45;;;9.98;;
10100;SDS011;5090;51.258;4.436;2023-05-07T08:51:08;13.75;;;9.40;;
10100;SDS011;5090;51.258;4.436;2023-05-07T08:53:35;16.35;;;8.60;;
10100;SDS011;5090;51.258;4.436;2023-05-07T08:56:05;14.55;;;8.65;;
10100;SDS011;5090;51.258;4.436;2023-05-07T08:58:33;11.38;;;7.62;;
10100;SDS011;5090;51.258;4.436;2023-05-07T09:01:03;12.93;;;7.35;;
10100;SDS011;5090;51.258;4.436;2023-05-07T09:03:30;13.85;;;8.30;;
10100;SDS011;5090;51.258;4.436;2023-05-07T09:05:58;14.45;;;8.40;;
10100;SDS011;5090;51.258;4.436;2023-05-07T09:08:26;13.50;;;7.87;;
10100;SDS011;5090;51.258;4.436;2023-05-07T09:10:54;11.25;;;8.05;;
10100;SDS011;5090;51.258;4.436;2023-05-07T09:13:23;15.85;;;7.47;;
10100;SDS011;5090;51.258;4.436;2023-05-07T09:15:51;14.32;;;8.75;;
10100;SDS011;5090;51.258;4.436;2023-05-07T09:18:20;14.65;;;8.32;;
10100;SDS011;5090;51.258;4.436;2023-05-07T09:20:49;10.32;;;7.80;;
10100;SDS011;5090;51.258;4.436;2023-05-07T09:23:17;13.25;;;8.65;;
10100;SDS011;5090;51.258;4.436;2023-05-07T09:25:48;15.43;;;8.70;;
10100;SDS011;5090;51.258;4.436;2023-05-07T09:28:16;13.57;;;8.02;;
10100;SDS011;5090;51.258;4.436;2023-05-07T09:30:53;12.88;;;8.48;;
10100;SDS011;5090;51.258;4.436;2023-05-07T09:33:26;12.37;;;9.02;;
10100;SDS011;5090;51.258;4.436;2023-05-07T09:35:52;12.45;;;9.15;;
10100;SDS011;5090;51.258;4.436;2023-05-07T09:38:25;14.68;;;8.52;;
10100;SDS011;5090;51.258;4.436;2023-05-07T09:43:27;14.32;;;9.68;;
10100;SDS011;5090;51.258;4.436;2023-05-07T09:45:55;14.40;;;9.38;;
10100;SDS011;5090;51.258;4.436;2023-05-07T09:48:24;14.48;;;9.35;;
10100;SDS011;5090;51.258;4.436;2023-05-07T09:50:53;11.32;;;8.90;;
10100;SDS011;5090;51.258;4.436;2023-05-07T09:53:23;13.05;;;7.72;;
10100;SDS011;5090;51.258;4.436;2023-05-07T09:55:53;12.50;;;8.85;;
10100;SDS011;5090;51.258;4.436;2023-05-07T09:58:29;12.75;;;8.73;;
10100;SDS011;5090;51.258;4.436;2023-05-07T10:00:58;15.43;;;8.88;;
10100;SDS011;5090;51.258;4.436;2023-05-07T10:03:26;16.20;;;9.07;;
10100;SDS011;5090;51.258;4.436;2023-05-07T10:05:54;11.63;;;9.18;;
10100;SDS011;5090;51.258;4.436;2023-05-07T10:08:23;15.52;;;8.52;;
10100;SDS011;5090;51.258;4.436;2023-05-07T10:10:51;12.63;;;7.30;;
10100;SDS011;5090;51.258;4.436;2023-05-07T10:13:20;11.43;;;6.90;;
10100;SDS011;5090;51.258;4.436;2023-05-07T10:15:49;11.82;;;7.30;;
10100;SDS011;5090;51.258;4.436;2023-05-07T10:18:19;13.20;;;7.82;;
10100;SDS011;5090;51.258;4.436;2023-05-07T10:20:49;13.90;;;7.35;;
10100;SDS011;5090;51.258;4.436;2023-05-07T10:23:20;11.68;;;8.25;;
10100;SDS011;5090;51.258;4.436;2023-05-07T10:25:45;13.68;;;7.57;;
10100;SDS011;5090;51.258;4.436;2023-05-07T10:28:15;11.80;;;7.93;;
10100;SDS011;5090;51.258;4.436;2023-05-07T10:33:19;14.98;;;8.13;;
10100;SDS011;5090;51.258;4.436;2023-05-07T10:35:47;12.55;;;7.87;;
10100;SDS011;5090;51.258;4.436;2023-05-07T10:38:15;13.62;;;7.30;;
10100;SDS011;5090;51.258;4.436;2023-05-07T10:40:43;11.77;;;8.05;;
10100;SDS011;5090;51.258;4.436;2023-05-07T10:43:11;14.23;;;7.43;;
10100;SDS011;5090;51.258;4.436;2023-05-07T10:45:41;21.58;;;9.55;;
10100;SDS011;5090;51.258;4.436;2023-05-07T10:48:12;14.80;;;7.00;;
10100;SDS011;5090;51.258;4.436;2023-05-07T10:50:45;12.60;;;7.95;;
10100;SDS011;5090;51.258;4.436;2023-05-07T10:53:20;16.08;;;8.30;;
10100;SDS011;5090;51.258;4.436;2023-05-07T10:58:48;16.25;;;12.20;;
10100;SDS011;5090;51.258;4.436;2023-05-07T11:01:35;17.80;;;13.82;;
10100;SDS011;5090;51.258;4.436;2023-05-07T11:06:21;12.50;;;8.70;;
10100;SDS011;5090;51.258;4.436;2023-05-07T11:08:58;14.70;;;10.25;;
10100;SDS011;5090;51.258;4.436;2023-05-07T11:12:02;16.92;;;14.55;;
10100;SDS011;5090;51.258;4.436;2023-05-07T11:14:46;16.70;;;12.57;;
10100;SDS011;5090;51.258;4.436;2023-05-07T11:17:02;17.65;;;10.68;;
10100;SDS011;5090;51.258;4.436;2023-05-07T11:24:44;8.00;;;4.47;;
10100;SDS011;5090;51.258;4.436;2023-05-07T11:27:13;4.97;;;3.53;;
10100;SDS011;5090;51.258;4.436;2023-05-07T11:29:41;9.98;;;4.97;;
10100;SDS011;5090;51.258;4.436;2023-05-07T11:32:09;11.68;;;6.47;;
10100;SDS011;5090;51.258;4.436;2023-05-07T11:34:39;10.65;;;6.05;;
10100;SDS011;5090;51.258;4.436;2023-05-07T11:37:08;12.93;;;8.00;;
10100;SDS011;5090;51.258;4.436;2023-05-07T11:39:37;15.15;;;8.23;;
10100;SDS011;5090;51.258;4.436;2023-05-07T11:42:05;13.43;;;9.77;;
10100;SDS011;5090;51.258;4.436;2023-05-07T11:47:09;11.30;;;9.00;;
10100;SDS011;5090;51.258;4.436;2023-05-07T11:49:37;8.77;;;6.72;;
10100;SDS011;5090;51.258;4.436;2023-05-07T11:52:05;12.07;;;8.18;;
10100;SDS011;5090;51.258;4.436;2023-05-07T11:54:36;8.90;;;6.78;;
10100;SDS011;5090;51.258;4.436;2023-05-07T11:57:04;12.05;;;6.35;;
10100;SDS011;5090;51.258;4.436;2023-05-07T11:59:40;7.37;;;5.68;;
10100;SDS011;5090;51.258;4.436;2023-05-07T12:02:10;9.68;;;4.72;;
10100;SDS011;5090;51.258;4.436;2023-05-07T12:04:39;10.35;;;4.55;;
10100;SDS011;5090;51.258;4.436;2023-05-07T12:07:12;9.98;;;5.72;;
10100;SDS011;5090;51.258;4.436;2023-05-07T12:09:41;10.73;;;5.37;;
10100;SDS011;5090;51.258;4.436;2023-05-07T12:12:09;9.90;;;6.87;;
10100;SDS011;5090;51.258;4.436;2023-05-07T12:14:39;9.85;;;6.30;;
10100;SDS011;5090;51.258;4.436;2023-05-07T12:17:08;6.65;;;4.82;;
10100;SDS011;5090;51.258;4.436;2023-05-07T12:19:36;9.15;;;6.37;;
10100;SDS011;5090;51.258;4.436;2023-05-07T12:22:05;6.87;;;5.65;;
10100;SDS011;5090;51.258;4.436;2023-05-07T12:27:07;12.13;;;6.28;;
10100;SDS011;5090;51.258;4.436;2023-05-07T12:29:38;8.73;;;6.12;;
10100;SDS011;5090;51.258;4.436;2023-05-07T12:32:07;9.68;;;6.32;;
10100;SDS011;5090;51.258;4.436;2023-05-07T12:34:42;10.40;;;7.40;;
10100;SDS011;5090;51.258;4.436;2023-05-07T12:37:11;10.48;;;6.60;;
10100;SDS011;5090;51.258;4.436;2023-05-07T12:39:47;11.68;;;6.43;;
10100;SDS011;5090;51.258;4.436;2023-05-07T12:42:16;8.52;;;6.20;;
10100;SDS011;5090;51.258;4.436;2023-05-07T12:44:45;11.40;;;7.22;;
10100;SDS011;5090;51.258;4.436;2023-05-07T12:47:12;10.38;;;6.53;;
10100;SDS011;5090;51.258;4.436;2023-05-07T12:49:40;8.93;;;5.80;;
10100;SDS011;5090;51.258;4.436;2023-05-07T12:52:10;9.05;;;5.85;;
10100;SDS011;5090;51.258;4.436;2023-05-07T12:54:38;8.50;;;5.03;;
10100;SDS011;5090;51.258;4.436;2023-05-07T12:57:08;7.57;;;4.90;;
10100;SDS011;5090;51.258;4.436;2023-05-07T12:59:37;4.97;;;4.40;;
10100;SDS011;5090;51.258;4.436;2023-05-07T13:02:06;8.38;;;5.32;;
10100;SDS011;5090;51.258;4.436;2023-05-07T13:04:38;11.05;;;5.65;;
10100;SDS011;5090;51.258;4.436;2023-05-07T13:07:08;8.30;;;5.20;;
10100;SDS011;5090;51.258;4.436;2023-05-07T13:09:36;7.15;;;4.32;;
10100;SDS011;5090;51.258;4.436;2023-05-07T13:12:05;10.55;;;5.40;;
10100;SDS011;5090;51.258;4.436;2023-05-07T13:14:34;10.77;;;5.82;;
10100;SDS011;5090;51.258;4.436;2023-05-07T13:17:03;13.60;;;8.27;;
10100;SDS011;5090;51.258;4.436;2023-05-07T13:19:31;7.57;;;4.68;;
10100;SDS011;5090;51.258;4.436;2023-05-07T13:22:00;6.05;;;4.20;;
10100;SDS011;5090;51.258;4.436;2023-05-07T13:24:28;5.53;;;3.33;;
10100;SDS011;5090;51.258;4.436;2023-05-07T13:26:57;8.18;;;3.22;;
10100;SDS011;5090;51.258;4.436;2023-05-07T13:29:25;5.07;;;3.00;;
10100;SDS011;5090;51.258;4.436;2023-05-07T13:31:54;6.80;;;2.60;;
10100;SDS011;5090;51.258;4.436;2023-05-07T13:34:22;5.93;;;2.15;;
10100;SDS011;5090;51.258;4.436;2023-05-07T13:36:50;4.15;;;2.10;;
10100;SDS011;5090;51.258;4.436;2023-05-07T13:39:19;8.25;;;1.80;;
10100;SDS011;5090;51.258;4.436;2023-05-07T13:41:47;5.85;;;2.28;;
10100;SDS011;5090;51.258;4.436;2023-05-07T13:44:15;6.90;;;1.70;;
10100;SDS011;5090;51.258;4.436;2023-05-07T13:46:44;5.03;;;1.67;;
10100;SDS011;5090;51.258;4.436;2023-05-07T13:49:12;5.93;;;2.40;;
10100;SDS011;5090;51.258;4.436;2023-05-07T13:51:41;4.28;;;1.80;;
10100;SDS011;5090;51.258;4.436;2023-05-07T13:54:09;4.90;;;2.00;;
10100;SDS011;5090;51.258;4.436;2023-05-07T13:56:37;3.78;;;1.77;;
10100;SDS011;5090;51.258;4.436;2023-05-07T13:59:06;4.15;;;2.17;;
10100;SDS011;5090;51.258;4.436;2023-05-07T14:01:36;3.35;;;2.12;;
10100;SDS011;5090;51.258;4.436;2023-05-07T14:04:04;3.83;;;1.87;;
10100;SDS011;5090;51.258;4.436;2023-05-07T14:06:32;4.90;;;2.20;;
10100;SDS011;5090;51.258;4.436;2023-05-07T14:09:01;4.90;;;2.45;;
10100;SDS011;5090;51.258;4.436;2023-05-07T14:11:30;3.97;;;1.95;;
10100;SDS011;5090;51.258;4.436;2023-05-07T14:13:59;4.00;;;1.98;;
10100;SDS011;5090;51.258;4.436;2023-05-07T14:16:27;4.18;;;2.20;;
10100;SDS011;5090;51.258;4.436;2023-05-07T14:18:55;3.25;;;2.10;;
10100;SDS011;5090;51.258;4.436;2023-05-07T14:21:24;4.80;;;2.72;;
10100;SDS011;5090;51.258;4.436;2023-05-07T14:23:52;3.10;;;2.40;;
10100;SDS011;5090;51.258;4.436;2023-05-07T14:26:20;5.18;;;2.53;;
10100;SDS011;5090;51.258;4.436;2023-05-07T14:28:49;8.30;;;2.55;;
10100;SDS011;5090;51.258;4.436;2023-05-07T14:31:20;4.93;;;2.42;;
10100;SDS011;5090;51.258;4.436;2023-05-07T14:33:50;4.43;;;2.17;;
10100;SDS011;5090;51.258;4.436;2023-05-07T14:36:18;4.12;;;2.50;;
10100;SDS011;5090;51.258;4.436;2023-05-07T14:38:48;5.78;;;2.50;;
10100;SDS011;5090;51.258;4.436;2023-05-07T14:41:16;3.85;;;2.60;;
10100;SDS011;5090;51.258;4.436;2023-05-07T14:43:44;4.70;;;2.58;;
10100;SDS011;5090;51.258;4.436;2023-05-07T14:46:13;6.65;;;2.50;;
10100;SDS011;5090;51.258;4.436;2023-05-07T14:48:43;7.82;;;2.95;;
10100;SDS011;5090;51.258;4.436;2023-05-07T14:51:11;4.70;;;2.60;;
10100;SDS011;5090;51.258;4.436;2023-05-07T14:53:40;6.20;;;3.00;;
10100;SDS011;5090;51.258;4.436;2023-05-07T14:56:07;6.15;;;2.62;;
10100;SDS011;5090;51.258;4.436;2023-05-07T14:58:35;3.08;;;2.22;;
10100;SDS011;5090;51.258;4.436;2023-05-07T15:01:04;5.45;;;2.60;;
10100;SDS011;5090;51.258;4.436;2023-05-07T15:03:32;3.62;;;2.12;;
10100;SDS011;5090;51.258;4.436;2023-05-07T15:06:01;4.60;;;2.53;;
10100;SDS011;5090;51.258;4.436;2023-05-07T15:08:29;3.67;;;2.12;;
10100;SDS011;5090;51.258;4.436;2023-05-07T15:11:00;4.87;;;2.10;;
10100;SDS011;5090;51.258;4.436;2023-05-07T15:13:28;4.62;;;2.22;;
10100;SDS011;5090;51.258;4.436;2023-05-07T15:15:56;4.47;;;2.10;;
10100;SDS011;5090;51.258;4.436;2023-05-07T15:18:24;4.70;;;2.12;;
10100;SDS011;5090;51.258;4.436;2023-05-07T15:20:53;3.37;;;2.08;;
10100;SDS011;5090;51.258;4.436;2023-05-07T15:23:21;3.85;;;1.92;;
10100;SDS011;5090;51.258;4.436;2023-05-07T15:25:49;5.90;;;2.50;;
10100;SDS011;5090;51.258;4.436;2023-05-07T15:28:18;4.40;;;2.28;;
10100;SDS011;5090;51.258;4.436;2023-05-07T15:30:46;2.70;;;2.05;;
10100;SDS011;5090;51.258;4.436;2023-05-07T15:33:14;6.10;;;2.65;;
10100;SDS011;5090;51.258;4.436;2023-05-07T15:35:42;6.40;;;2.55;;
10100;SDS011;5090;51.258;4.436;2023-05-07T15:38:11;4.87;;;2.28;;
10100;SDS011;5090;51.258;4.436;2023-05-07T15:40:39;4.28;;;2.60;;
10100;SDS011;5090;51.258;4.436;2023-05-07T15:43:08;4.53;;;2.25;;
10100;SDS011;5090;51.258;4.436;2023-05-07T15:45:40;2.90;;;2.22;;
10100;SDS011;5090;51.258;4.436;2023-05-07T15:48:08;7.72;;;2.30;;
10100;SDS011;5090;51.258;4.436;2023-05-07T15:50:36;5.37;;;2.65;;
10100;SDS011;5090;51.258;4.436;2023-05-07T15:53:05;4.12;;;2.37;;
10100;SDS011;5090;51.258;4.436;2023-05-07T15:55:33;5.50;;;2.47;;
10100;SDS011;5090;51.258;4.436;2023-05-07T15:58:01;6.87;;;2.05;;
10100;SDS011;5090;51.258;4.436;2023-05-07T16:00:29;5.03;;;2.40;;